Time;durP1;ratioP1;P1;durP2;ratioP2;P2;SDS_P1;SDS_P2;PMS_P1;PMS_P2;Temp;Humidity;BMP_temperature;BMP_pressure;BME280_temperature;BME280_humidity;BME280_pressure;Samples;Min_cycle;Max_cycle;Signal;HPM_P1;HPM_P2
2022/01/11 00:00:05;;;;;;;28.87;12.53;;;1.20;99.90;;;;;;4998425;28;20502;-77
2022/01/11 00:02:33;;;;;;;25.53;13.20;;;1.20;99.90;;;;;;4995380;28;20450;-78
2022/01/11 00:04:59;;;;;;;29.23;12.87;;;1.20;99.90;;;;;;5007379;28;20439;-79
2022/01/11 00:07:24;;;;;;;91.53;31.37;;;1.20;99.90;;;;;;5007005;28;20431;-77
2022/01/11 00:09:51;;;;;;;29.70;14.17;;;1.20;99.90;;;;;;5002175;28;20537;-78
2022/01/11 00:12:17;;;;;;;30.00;12.50;;;1.20;99.90;;;;;;5005475;28;20226;-79
2022/01/11 00:14:43;;;;;;;30.40;14.90;;;1.20;99.90;;;;;;5002264;28;20493;-77
2022/01/11 00:17:09;;;;;;;32.93;14.63;;;1.20;99.90;;;;;;5004166;28;20615;-78
2022/01/11 00:19:35;;;;;;;29.07;13.10;;;1.20;99.90;;;;;;4999021;28;20168;-77
2022/01/11 00:22:05;;;;;;;32.20;13.57;;;1.20;99.90;;;;;;5004367;28;20199;-77
2022/01/11 00:24:32;;;;;;;26.80;13.03;;;1.30;99.90;;;;;;4995071;28;20266;-77
2022/01/11 00:27:01;;;;;;;27.43;11.50;;;1.40;99.90;;;;;;4984284;28;20470;-78
2022/01/11 00:29:27;;;;;;;28.93;12.93;;;1.40;99.90;;;;;;4992059;28;20947;-77
2022/01/11 00:31:59;;;;;;;37.73;16.87;;;1.40;99.90;;;;;;4984155;28;20502;-78
2022/01/11 00:34:26;;;;;;;29.40;14.90;;;1.50;99.90;;;;;;4990980;28;20457;-77
2022/01/11 00:36:52;;;;;;;31.00;14.30;;;1.50;99.90;;;;;;4992188;28;20518;-78
2022/01/11 00:39:18;;;;;;;29.27;15.63;;;1.50;99.90;;;;;;4987088;28;20509;-77
2022/01/11 00:41:44;;;;;;;26.07;12.90;;;1.50;99.90;;;;;;4990448;28;20286;-77
2022/01/11 00:44:11;;;;;;;26.77;13.53;;;1.40;99.90;;;;;;4986079;28;20225;-77
2022/01/11 00:46:40;;;;;;;22.93;12.03;;;1.40;99.90;;;;;;4990340;28;20426;-77
2022/01/11 00:49:06;;;;;;;28.50;13.13;;;1.30;99.90;;;;;;4985453;28;20418;-77
2022/01/11 00:51:32;;;;;;;22.30;10.40;;;1.30;99.90;;;;;;4992162;28;20407;-78
2022/01/11 00:53:58;;;;;;;28.40;12.37;;;1.30;99.90;;;;;;4992325;28;20746;-78
2022/01/11 00:56:24;;;;;;;24.13;11.40;;;1.20;99.90;;;;;;4991921;28;20445;-78
2022/01/11 00:58:50;;;;;;;27.90;12.77;;;1.10;99.90;;;;;;4993153;28;20163;-77
2022/01/11 01:01:16;;;;;;;21.10;10.20;;;1.20;99.90;;;;;;4992919;28;20417;-78
2022/01/11 01:03:41;;;;;;;22.00;10.57;;;1.10;99.90;;;;;;4992329;28;20204;-78
2022/01/11 01:06:07;;;;;;;23.73;10.50;;;1.00;99.90;;;;;;4992111;28;20192;-78
2022/01/11 01:08:33;;;;;;;25.43;13.17;;;1.00;99.90;;;;;;5005385;28;20244;-77
2022/01/11 01:10:59;;;;;;;26.43;12.27;;;1.00;99.90;;;;;;4985532;28;20429;-79
2022/01/11 01:13:30;;;;;;;24.97;12.33;;;1.00;99.90;;;;;;4990640;28;20222;-77
2022/01/11 01:16:04;;;;;;;22.93;11.20;;;1.00;99.90;;;;;;4985251;28;20435;-78
2022/01/11 01:18:41;;;;;;;26.33;12.00;;;1.00;99.90;;;;;;4991286;28;20441;-78
2022/01/11 01:21:09;;;;;;;27.30;12.27;;;1.00;99.90;;;;;;4992720;28;20522;-78
2022/01/11 01:23:34;;;;;;;31.43;11.90;;;1.00;99.90;;;;;;5005741;28;20561;-78
2022/01/11 01:26:01;;;;;;;20.43;9.13;;;1.00;99.90;;;;;;4992313;28;20179;-78
2022/01/11 01:28:27;;;;;;;21.93;11.47;;;1.00;99.90;;;;;;4991851;28;20713;-78
2022/01/11 01:30:55;;;;;;;17.17;8.90;;;0.90;99.90;;;;;;4991682;28;20477;-77
2022/01/11 01:33:22;;;;;;;26.17;10.90;;;1.00;99.90;;;;;;4971044;28;20422;-79
2022/01/11 01:35:54;;;;;;;21.77;11.30;;;1.00;99.90;;;;;;4990383;28;20458;-78
2022/01/11 01:38:23;;;;;;;21.20;11.47;;;1.00;99.90;;;;;;4992311;28;20422;-78
2022/01/11 01:40:50;;;;;;;22.17;11.40;;;1.00;99.90;;;;;;4991870;28;20916;-78
2022/01/11 01:43:16;;;;;;;24.43;11.33;;;0.90;99.90;;;;;;4987330;28;20478;-79
2022/01/11 01:45:44;;;;;;;20.60;9.53;;;0.90;99.90;;;;;;4990907;28;20953;-79
2022/01/11 01:48:13;;;;;;;27.07;11.17;;;0.90;99.90;;;;;;4987085;28;20438;-77
2022/01/11 01:50:39;;;;;;;23.40;11.33;;;0.90;99.90;;;;;;4991831;28;20413;-78
2022/01/11 01:53:07;;;;;;;24.70;12.07;;;0.80;99.90;;;;;;4986594;28;20411;-79
2022/01/11 01:55:33;;;;;;;21.57;11.73;;;0.90;99.90;;;;;;4974107;28;20474;-79
2022/01/11 01:57:59;;;;;;;26.33;11.63;;;0.80;99.90;;;;;;4984543;28;20423;-78
2022/01/11 02:00:28;;;;;;;22.97;10.70;;;0.80;99.90;;;;;;4990786;28;20769;-78
2022/01/11 02:03:04;;;;;;;23.93;10.07;;;0.80;99.90;;;;;;4992310;28;20358;-78
2022/01/11 02:05:30;;;;;;;20.73;10.90;;;0.80;99.90;;;;;;4988141;28;20854;-78
2022/01/11 02:07:56;;;;;;;24.43;9.97;;;0.80;99.90;;;;;;4992175;28;20485;-79
2022/01/11 02:10:21;;;;;;;18.23;9.03;;;0.70;99.90;;;;;;4987245;28;20198;-78
2022/01/11 02:12:47;;;;;;;20.57;11.07;;;0.80;99.90;;;;;;4982728;28;20179;-78
2022/01/11 02:15:13;;;;;;;24.20;12.00;;;0.80;99.90;;;;;;4991248;28;20192;-78
2022/01/11 02:17:39;;;;;;;26.77;11.30;;;0.90;99.90;;;;;;4990302;28;20451;-78
2022/01/11 02:20:05;;;;;;;21.97;11.77;;;0.90;99.90;;;;;;4984696;28;20474;-78
2022/01/11 02:22:31;;;;;;;25.20;12.33;;;1.00;99.90;;;;;;4990901;28;20299;-78
2022/01/11 02:24:57;;;;;;;29.13;11.70;;;0.90;99.90;;;;;;4986154;28;20430;-78
2022/01/11 02:27:22;;;;;;;28.07;12.73;;;0.90;99.90;;;;;;4994107;28;20534;-79
2022/01/11 02:29:48;;;;;;;23.90;11.10;;;1.00;99.90;;;;;;4996440;28;20598;-79
2022/01/11 02:32:15;;;;;;;24.47;12.30;;;1.00;99.90;;;;;;4974749;28;20184;-78
2022/01/11 02:34:41;;;;;;;31.97;13.77;;;1.00;99.90;;;;;;4994555;28;20525;-79
2022/01/11 02:37:18;;;;;;;26.27;12.80;;;1.00;99.90;;;;;;5039726;23;20991;-76
2022/01/11 02:39:52;;;;;;;24.53;12.20;;;1.00;99.90;;;;;;5016878;28;20405;-76
2022/01/11 02:42:24;;;;;;;26.73;12.50;;;0.90;99.90;;;;;;5017014;28;20488;-76
2022/01/11 02:44:50;;;;;;;20.90;11.40;;;1.00;99.90;;;;;;5016942;28;20834;-77
2022/01/11 02:47:19;;;;;;;27.20;12.17;;;1.00;99.90;;;;;;5043204;28;20416;-77
2022/01/11 02:49:47;;;;;;;21.60;10.80;;;0.90;99.90;;;;;;5037041;28;20423;-76
2022/01/11 02:52:18;;;;;;;22.17;12.60;;;0.80;99.90;;;;;;5036322;28;20412;-76
2022/01/11 02:54:51;;;;;;;29.17;14.07;;;0.80;99.90;;;;;;5039094;28;20412;-76
2022/01/11 02:57:20;;;;;;;32.03;13.17;;;0.80;99.90;;;;;;5039501;28;20436;-77
2022/01/11 02:59:47;;;;;;;26.87;13.10;;;0.70;99.90;;;;;;5036687;28;20427;-75
2022/01/11 03:02:15;;;;;;;27.17;12.87;;;0.80;99.90;;;;;;5040954;28;20791;-77
2022/01/11 03:04:44;;;;;;;25.30;12.47;;;0.80;99.90;;;;;;5057022;28;20408;-75
2022/01/11 03:07:10;;;;;;;31.03;16.87;;;0.80;99.90;;;;;;5036331;28;21030;-77
2022/01/11 03:09:57;;;;;;;27.23;13.20;;;0.80;99.90;;;;;;5036240;28;20420;-77
2022/01/11 03:12:23;;;;;;;26.03;12.17;;;0.80;99.90;;;;;;5022465;28;20866;-77
2022/01/11 03:14:49;;;;;;;24.00;13.20;;;0.80;99.90;;;;;;5036401;28;20455;-76
2022/01/11 03:17:15;;;;;;;30.03;13.63;;;0.80;99.90;;;;;;5037442;28;20436;-76
2022/01/11 03:19:41;;;;;;;31.77;12.30;;;0.80;99.90;;;;;;5037963;28;20188;-77
2022/01/11 03:22:08;;;;;;;29.77;13.33;;;0.80;99.90;;;;;;5041165;28;20460;-76
2022/01/11 03:24:34;;;;;;;28.20;13.13;;;0.80;99.90;;;;;;5042379;28;21000;-76
2022/01/11 03:27:01;;;;;;;24.50;13.30;;;0.80;99.90;;;;;;5027727;28;20667;-75
2022/01/11 03:29:28;;;;;;;28.13;12.80;;;0.80;99.90;;;;;;5037068;28;20412;-76
2022/01/11 03:31:54;;;;;;;25.37;11.00;;;0.80;99.90;;;;;;5035908;28;20431;-76
2022/01/11 03:34:20;;;;;;;28.30;12.03;;;0.80;99.90;;;;;;5035659;28;20196;-77
2022/01/11 03:36:47;;;;;;;28.10;12.03;;;0.80;99.90;;;;;;5033588;28;20960;-77
2022/01/11 03:39:13;;;;;;;23.70;11.93;;;0.80;99.90;;;;;;5035559;28;20431;-77
2022/01/11 03:41:39;;;;;;;28.20;12.23;;;0.80;99.90;;;;;;5035651;28;20260;-77
2022/01/11 03:44:06;;;;;;;26.40;12.67;;;0.80;99.90;;;;;;5019566;28;20428;-76
2022/01/11 03:46:32;;;;;;;22.10;10.40;;;0.80;99.90;;;;;;5035240;28;20434;-77
2022/01/11 03:48:58;;;;;;;25.03;12.77;;;0.90;99.90;;;;;;5035409;28;20492;-77
2022/01/11 03:51:26;;;;;;;25.50;12.50;;;0.80;99.90;;;;;;5035640;28;20447;-77
2022/01/11 03:54:02;;;;;;;28.57;12.60;;;0.80;99.90;;;;;;5035009;28;20458;-77
2022/01/11 03:56:29;;;;;;;20.93;11.57;;;0.80;99.90;;;;;;5034877;28;20734;-77
2022/01/11 03:59:11;;;;;;;23.10;11.43;;;0.80;99.90;;;;;;5052049;28;20400;-77
2022/01/11 04:01:38;;;;;;;28.27;14.03;;;0.80;99.90;;;;;;5018737;28;20392;-76
2022/01/11 04:04:06;;;;;;;22.33;12.20;;;0.70;99.90;;;;;;5035265;28;20443;-77
2022/01/11 04:06:33;;;;;;;30.13;11.13;;;0.70;99.90;;;;;;5035075;28;20427;-77
2022/01/11 04:08:59;;;;;;;23.20;11.23;;;0.80;99.90;;;;;;5034560;28;20461;-76
2022/01/11 04:11:25;;;;;;;24.30;11.80;;;0.80;99.90;;;;;;5053219;28;20475;-76
2022/01/11 04:13:52;;;;;;;22.63;12.20;;;0.80;99.90;;;;;;5034898;28;20181;-77
2022/01/11 04:16:18;;;;;;;26.73;11.87;;;0.80;99.90;;;;;;5043693;28;20440;-77
2022/01/11 04:18:44;;;;;;;21.70;11.33;;;0.80;99.90;;;;;;5037018;28;20162;-77
2022/01/11 04:21:10;;;;;;;28.33;11.80;;;0.80;99.90;;;;;;5073871;28;20415;-76
2022/01/11 04:23:36;;;;;;;24.23;11.33;;;0.70;99.90;;;;;;5050468;28;20421;-76
2022/01/11 04:26:03;;;;;;;25.20;12.77;;;0.60;99.90;;;;;;5042569;28;20448;-76
2022/01/11 04:28:33;;;;;;;30.50;11.80;;;0.60;99.90;;;;;;5040522;28;20173;-76
2022/01/11 04:31:01;;;;;;;28.63;12.83;;;0.60;99.90;;;;;;5036238;28;20416;-76
2022/01/11 04:33:30;;;;;;;25.03;12.60;;;0.60;99.90;;;;;;5035092;28;20448;-76
2022/01/11 04:36:00;;;;;;;23.30;11.73;;;0.60;99.90;;;;;;5033510;28;20451;-76
2022/01/11 04:38:29;;;;;;;28.40;13.10;;;0.70;99.90;;;;;;5035084;28;20956;-76
2022/01/11 04:40:55;;;;;;;31.17;14.13;;;0.70;99.90;;;;;;5019006;28;20435;-76
2022/01/11 04:43:22;;;;;;;35.13;14.97;;;0.60;99.90;;;;;;5036168;28;20443;-76
2022/01/11 04:45:49;;;;;;;34.67;12.30;;;0.70;99.90;;;;;;5035005;28;20551;-76
2022/01/11 04:48:16;;;;;;;26.57;12.60;;;0.60;99.90;;;;;;5035248;28;20443;-77
2022/01/11 04:50:42;;;;;;;30.47;13.80;;;0.70;99.90;;;;;;5034403;28;20412;-76
2022/01/11 04:53:12;;;;;;;32.50;13.83;;;0.70;99.90;;;;;;5034404;28;20469;-76
2022/01/11 04:55:38;;;;;;;23.67;12.43;;;0.70;99.90;;;;;;5033168;28;20470;-76
2022/01/11 04:58:04;;;;;;;26.23;11.47;;;0.70;99.90;;;;;;5034824;28;20747;-77
2022/01/11 05:00:30;;;;;;;28.77;13.73;;;0.70;99.90;;;;;;5018082;28;20177;-76
2022/01/11 05:02:58;;;;;;;33.43;13.67;;;0.70;99.90;;;;;;5052106;28;20454;-77
2022/01/11 05:05:27;;;;;;;29.50;11.77;;;0.70;99.90;;;;;;5034043;28;20865;-78
2022/01/11 05:07:54;;;;;;;29.57;14.87;;;0.70;99.90;;;;;;5034089;28;20893;-75
2022/01/11 05:10:20;;;;;;;23.73;12.00;;;0.70;99.90;;;;;;5034513;28;20408;-77
2022/01/11 05:12:46;;;;;;;31.03;14.63;;;0.70;99.90;;;;;;5038310;28;20416;-75
2022/01/11 05:15:16;;;;;;;30.30;12.80;;;0.60;99.90;;;;;;5037507;28;20419;-75
2022/01/11 05:17:44;;;;;;;31.47;13.27;;;0.60;99.90;;;;;;5034866;28;20428;-77
2022/01/11 05:20:11;;;;;;;28.00;14.00;;;0.60;99.90;;;;;;5034505;28;20413;-76
2022/01/11 05:22:39;;;;;;;26.93;13.27;;;0.50;99.90;;;;;;5033326;28;20538;-77
2022/01/11 05:25:06;;;;;;;27.37;11.77;;;0.50;99.90;;;;;;5052129;28;20412;-78
2022/01/11 05:27:32;;;;;;;31.70;13.53;;;0.50;99.90;;;;;;5051765;28;20416;-77
2022/01/11 05:29:59;;;;;;;29.50;12.33;;;0.40;99.90;;;;;;5033554;28;20412;-76
2022/01/11 05:32:26;;;;;;;29.40;13.27;;;0.30;99.90;;;;;;5017174;28;20875;-77
2022/01/11 05:34:52;;;;;;;29.40;13.57;;;0.30;99.90;;;;;;5034027;28;20499;-76
2022/01/11 05:37:17;;;;;;;33.70;14.10;;;0.30;99.90;;;;;;5033655;28;21035;-78
2022/01/11 05:39:43;;;;;;;26.27;13.40;;;0.30;99.90;;;;;;5034901;28;20527;-77
2022/01/11 05:42:10;;;;;;;29.10;12.30;;;0.40;99.90;;;;;;5034078;28;20277;-77
2022/01/11 05:44:36;;;;;;;25.87;11.20;;;0.40;99.90;;;;;;5034249;28;20455;-77
2022/01/11 05:47:04;;;;;;;28.00;13.10;;;0.40;99.90;;;;;;5033241;28;20421;-77
2022/01/11 05:49:31;;;;;;;29.97;12.60;;;0.40;99.90;;;;;;5033751;28;20412;-77
2022/01/11 05:51:57;;;;;;;24.57;11.63;;;0.40;99.90;;;;;;5034308;28;20450;-75
2022/01/11 05:54:22;;;;;;;29.93;13.80;;;0.40;99.90;;;;;;5051605;28;20507;-77
2022/01/11 05:56:50;;;;;;;24.20;10.80;;;0.30;99.90;;;;;;5033320;28;20420;-75
2022/01/11 05:59:16;;;;;;;26.73;12.63;;;0.30;99.90;;;;;;5035277;28;20809;-77
2022/01/11 06:01:42;;;;;;;25.10;10.73;;;0.20;99.90;;;;;;5041541;28;20428;-75
2022/01/11 06:04:09;;;;;;;26.57;12.17;;;0.20;99.90;;;;;;5040069;28;20410;-77
2022/01/11 06:06:35;;;;;;;24.87;12.30;;;0.30;99.90;;;;;;5038621;28;20490;-76
2022/01/11 06:09:02;;;;;;;25.30;10.73;;;0.30;99.90;;;;;;5025034;28;20483;-76
2022/01/11 06:11:29;;;;;;;26.80;12.40;;;0.30;99.90;;;;;;5043530;28;20200;-76
2022/01/11 06:13:55;;;;;;;25.40;12.63;;;0.30;99.90;;;;;;5040156;28;20803;-75
2022/01/11 06:16:21;;;;;;;26.43;12.57;;;0.30;99.90;;;;;;5035820;28;20563;-77
2022/01/11 06:18:48;;;;;;;27.53;12.30;;;0.30;99.90;;;;;;5060603;28;20455;-76
2022/01/11 06:21:20;;;;;;;28.50;12.27;;;0.20;99.90;;;;;;5050460;28;20443;-76
2022/01/11 06:23:47;;;;;;;24.27;12.63;;;0.20;99.90;;;;;;5044106;28;20808;-76
2022/01/11 06:26:14;;;;;;;21.37;11.90;;;0.20;99.90;;;;;;5021027;28;20782;-76
2022/01/11 06:28:41;;;;;;;29.23;12.10;;;0.20;99.90;;;;;;5029211;28;20698;-76
2022/01/11 06:31:08;;;;;;;28.43;13.00;;;0.20;99.90;;;;;;5032774;28;20807;-73
2022/01/11 06:33:35;;;;;;;30.87;12.73;;;0.10;99.90;;;;;;5036704;28;20427;-73
2022/01/11 06:36:01;;;;;;;32.20;12.17;;;0.10;99.90;;;;;;5032475;28;20455;-73
2022/01/11 06:38:27;;;;;;;31.33;12.90;;;0.20;99.90;;;;;;5052525;28;20174;-75
2022/01/11 06:40:54;;;;;;;34.00;14.70;;;0.20;99.90;;;;;;5019961;28;20408;-72
2022/01/11 06:43:21;;;;;;;32.70;14.20;;;0.20;99.90;;;;;;5023525;28;20462;-73
2022/01/11 06:45:47;;;;;;;23.97;10.40;;;0.20;99.90;;;;;;5024383;28;20429;-73
2022/01/11 06:48:17;;;;;;;30.07;14.37;;;0.30;99.90;;;;;;5028110;28;20968;-73
2022/01/11 06:50:43;;;;;;;25.53;11.63;;;0.30;99.90;;;;;;5033784;28;20428;-71
2022/01/11 06:53:09;;;;;;;28.00;13.00;;;0.30;99.90;;;;;;5038391;28;20359;-73
2022/01/11 06:55:39;;;;;;;27.83;13.23;;;0.30;99.90;;;;;;5023596;28;20423;-73
2022/01/11 06:58:05;;;;;;;26.90;13.83;;;0.30;99.90;;;;;;5035901;28;20427;-74
2022/01/11 07:00:31;;;;;;;28.93;14.03;;;0.30;99.90;;;;;;5035447;28;20729;-73
2022/01/11 07:03:03;;;;;;;23.67;11.73;;;0.30;99.90;;;;;;5019276;28;20811;-74
2022/01/11 07:05:45;;;;;;;26.03;12.23;;;0.30;99.90;;;;;;5035584;28;20415;-72
2022/01/11 07:08:12;;;;;;;28.63;13.97;;;0.30;99.90;;;;;;5030051;28;20436;-73
2022/01/11 07:10:38;;;;;;;25.63;11.70;;;0.40;99.90;;;;;;5018739;28;20854;-73
2022/01/11 07:13:05;;;;;;;23.70;10.93;;;0.30;99.90;;;;;;5040368;28;20494;-74
2022/01/11 07:15:31;;;;;;;26.40;12.30;;;0.30;99.90;;;;;;5025764;28;20416;-73
2022/01/11 07:17:59;;;;;;;25.57;11.97;;;0.30;99.90;;;;;;5033594;28;20421;-74
2022/01/11 07:20:25;;;;;;;26.80;12.63;;;0.30;99.90;;;;;;5041879;28;20493;-74
2022/01/11 07:22:52;;;;;;;24.77;11.80;;;0.30;99.90;;;;;;5047841;28;20224;-73
2022/01/11 07:25:17;;;;;;;27.93;11.90;;;0.30;99.90;;;;;;5034692;28;20460;-73
2022/01/11 07:27:44;;;;;;;27.83;12.30;;;0.30;99.90;;;;;;5034131;28;20681;-73
2022/01/11 07:30:12;;;;;;;28.50;12.63;;;0.30;99.90;;;;;;5023925;28;20435;-73
2022/01/11 07:32:44;;;;;;;29.97;13.90;;;0.20;99.90;;;;;;5035763;28;20871;-73
2022/01/11 07:35:10;;;;;;;28.33;12.50;;;0.00;99.90;;;;;;5036217;28;20762;-73
2022/01/11 07:37:37;;;;;;;27.03;11.70;;;0.00;99.90;;;;;;5033472;28;20574;-72
2022/01/11 07:40:06;;;;;;;31.73;13.07;;;0.00;99.90;;;;;;5048033;28;20954;-71
2022/01/11 07:42:32;;;;;;;39.53;14.63;;;0.00;99.90;;;;;;5038790;28;20723;-72
2022/01/11 07:45:26;;;;;;;31.13;12.60;;;0.00;99.90;;;;;;5041107;28;20850;-72
2022/01/11 07:47:52;;;;;;;29.10;12.27;;;0.00;99.90;;;;;;5054437;28;20538;-74
2022/01/11 07:50:17;;;;;;;29.57;13.47;;;0.00;99.90;;;;;;5021750;28;20481;-72
2022/01/11 07:52:43;;;;;;;22.57;11.10;;;0.00;99.90;;;;;;5043828;28;20173;-72
2022/01/11 07:55:09;;;;;;;36.87;14.00;;;0.00;99.90;;;;;;5056669;28;20411;-72
2022/01/11 07:57:35;;;;;;;24.00;12.30;;;0.00;99.90;;;;;;5056011;28;20607;-72
2022/01/11 08:00:05;;;;;;;30.60;13.50;;;0.00;99.90;;;;;;5040497;28;20423;-73
2022/01/11 08:02:42;;;;;;;24.53;12.40;;;0.00;99.90;;;;;;5050960;28;20484;-73
2022/01/11 08:05:21;;;;;;;27.57;12.60;;;0.00;99.90;;;;;;5030524;28;20412;-72
2022/01/11 08:07:48;;;;;;;26.90;11.40;;;0.00;99.90;;;;;;5034586;28;20865;-72
2022/01/11 08:10:20;;;;;;;31.87;13.70;;;-0.10;99.90;;;;;;5024168;28;20428;-73
2022/01/11 08:12:46;;;;;;;24.77;11.83;;;-0.20;99.90;;;;;;5052633;28;20469;-72
2022/01/11 08:15:12;;;;;;;20.47;10.40;;;-0.20;99.90;;;;;;5045527;28;20268;-72
2022/01/11 08:17:39;;;;;;;30.27;12.60;;;-0.20;99.90;;;;;;5050467;28;20280;-73
2022/01/11 08:20:07;;;;;;;35.17;12.33;;;-0.20;99.90;;;;;;5021950;28;20791;-74
2022/01/11 08:22:35;;;;;;;23.77;11.80;;;-0.20;99.90;;;;;;5055692;28;20455;-75
2022/01/11 08:25:01;;;;;;;26.53;12.00;;;-0.10;99.90;;;;;;5043093;28;20420;-73
2022/01/11 08:27:26;;;;;;;27.50;12.97;;;-0.10;99.90;;;;;;5071916;28;20415;-72
2022/01/11 08:29:53;;;;;;;25.43;12.00;;;-0.10;99.90;;;;;;5044563;28;20431;-72
2022/01/11 08:32:18;;;;;;;26.43;12.30;;;-0.10;99.90;;;;;;5052112;28;20420;-73
2022/01/11 08:34:45;;;;;;;30.30;12.53;;;-0.10;99.90;;;;;;5041015;28;20267;-73
2022/01/11 08:37:12;;;;;;;23.47;12.17;;;-0.10;99.90;;;;;;5052117;28;20485;-73
2022/01/11 08:39:39;;;;;;;24.60;12.37;;;0.00;99.90;;;;;;5033559;28;20921;-73
2022/01/11 08:42:08;;;;;;;31.87;14.37;;;0.10;99.90;;;;;;5051627;28;20443;-73
2022/01/11 08:44:34;;;;;;;24.20;11.27;;;0.10;99.90;;;;;;5040785;28;20420;-74
2022/01/11 08:47:01;;;;;;;27.13;12.20;;;0.20;99.90;;;;;;5034213;28;20489;-73
2022/01/11 08:49:34;;;;;;;24.60;11.43;;;0.20;99.90;;;;;;5029985;28;20413;-72
2022/01/11 08:52:00;;;;;;;28.87;12.47;;;0.20;99.90;;;;;;5049092;28;20834;-73
2022/01/11 08:54:26;;;;;;;24.60;11.47;;;0.20;99.90;;;;;;5050358;28;20465;-72
2022/01/11 08:56:56;;;;;;;27.53;13.00;;;0.30;99.90;;;;;;5053894;28;20463;-72
2022/01/11 08:59:25;;;;;;;21.70;10.97;;;0.40;99.90;;;;;;5035164;28;20472;-70
2022/01/11 09:01:57;;;;;;;26.03;12.50;;;0.40;99.90;;;;;;5066954;28;20425;-72
2022/01/11 09:04:23;;;;;;;18.80;10.23;;;0.30;99.50;;;;;;5048324;28;20427;-73
2022/01/11 09:07:20;;;;;;;23.03;10.20;;;0.30;99.20;;;;;;5049479;28;20835;-72
2022/01/11 09:09:48;;;;;;;24.10;11.43;;;0.30;99.80;;;;;;5033094;28;20427;-71
2022/01/11 09:12:15;;;;;;;24.57;11.00;;;0.40;99.90;;;;;;5054221;28;20419;-73
2022/01/11 09:14:44;;;;;;;31.50;13.23;;;0.50;99.70;;;;;;5051401;28;20427;-73
2022/01/11 09:17:11;;;;;;;23.37;11.33;;;0.50;99.40;;;;;;5039846;28;20940;-72
2022/01/11 09:19:38;;;;;;;22.80;11.80;;;0.50;98.90;;;;;;5016099;28;20515;-73
2022/01/11 09:22:06;;;;;;;18.87;10.60;;;0.50;98.90;;;;;;5047680;28;20527;-73
2022/01/11 09:24:35;;;;;;;28.73;10.93;;;0.50;99.30;;;;;;5048430;28;20781;-73
2022/01/11 09:27:04;;;;;;;24.53;13.47;;;0.60;99.70;;;;;;5016716;28;21007;-72
2022/01/11 09:29:33;;;;;;;22.57;10.47;;;0.70;99.60;;;;;;5039418;28;20473;-72
2022/01/11 09:32:00;;;;;;;25.23;12.17;;;0.80;99.60;;;;;;5032337;28;20815;-72
2022/01/11 09:34:28;;;;;;;29.07;12.77;;;0.80;99.10;;;;;;5035611;28;20594;-74
2022/01/11 09:36:55;;;;;;;30.83;13.90;;;0.90;98.90;;;;;;5054570;28;20459;-74
2022/01/11 09:39:21;;;;;;;31.17;13.27;;;0.90;98.90;;;;;;5037218;28;20566;-71
2022/01/11 09:41:47;;;;;;;25.83;11.47;;;1.00;98.30;;;;;;5054676;28;20435;-73
2022/01/11 09:44:13;;;;;;;20.40;10.80;;;1.00;98.70;;;;;;5054227;28;20411;-73
2022/01/11 09:46:40;;;;;;;21.17;11.70;;;1.00;98.60;;;;;;5037683;28;20531;-73
2022/01/11 09:49:06;;;;;;;26.33;13.47;;;1.10;98.70;;;;;;5037380;28;20718;-71
2022/01/11 09:51:36;;;;;;;28.17;13.60;;;1.10;97.90;;;;;;5048574;28;20439;-71
2022/01/11 09:54:04;;;;;;;24.43;11.73;;;1.10;98.20;;;;;;5053382;28;20510;-72
2022/01/11 09:56:37;;;;;;;32.10;11.63;;;1.20;98.60;;;;;;5027789;28;20427;-73
2022/01/11 09:59:04;;;;;;;27.07;12.20;;;1.30;98.10;;;;;;5039256;28;20416;-73
2022/01/11 10:02:09;;;;;;;20.70;11.40;;;1.30;97.80;;;;;;4956343;28;20522;-72
2022/01/11 10:04:59;;;;;;;22.10;10.90;;;1.40;98.00;;;;;;4969461;28;20435;-74
2022/01/11 10:07:42;;;;;;;24.80;12.33;;;1.40;97.40;;;;;;5025808;28;20454;-72
2022/01/11 10:10:13;;;;;;;24.17;12.07;;;1.50;97.70;;;;;;5038284;28;20420;-74
2022/01/11 10:12:46;;;;;;;18.87;10.33;;;1.60;97.50;;;;;;5039668;28;20416;-71
2022/01/11 10:15:13;;;;;;;22.43;12.43;;;1.60;96.60;;;;;;5053561;28;20422;-72
2022/01/11 10:17:44;;;;;;;20.40;11.13;;;1.70;97.50;;;;;;5053826;28;20424;-71
2022/01/11 10:20:16;;;;;;;25.37;12.20;;;1.80;96.30;;;;;;5054788;28;20400;-72
2022/01/11 10:23:05;;;;;;;23.50;11.23;;;1.80;96.60;;;;;;5038794;28;20541;-73
2022/01/11 10:25:43;;;;;;;28.20;10.93;;;1.90;97.10;;;;;;5038228;28;20436;-71
2022/01/11 10:28:10;;;;;;;23.50;12.43;;;1.90;96.20;;;;;;5036818;28;20793;-73
2022/01/11 10:30:40;;;;;;;25.90;13.17;;;1.80;95.50;;;;;;5061142;28;20423;-73
2022/01/11 10:33:09;;;;;;;24.10;12.20;;;1.80;96.20;;;;;;5041852;28;20432;-72
2022/01/11 10:35:42;;;;;;;22.33;11.80;;;1.90;97.10;;;;;;5036998;28;20956;-73
2022/01/11 10:38:31;;;;;;;23.97;11.93;;;2.10;95.70;;;;;;5034857;28;20474;-74
2022/01/11 10:41:01;;;;;;;27.30;12.53;;;2.10;95.00;;;;;;5032971;28;20417;-73
2022/01/11 10:43:29;;;;;;;28.70;13.07;;;2.20;95.90;;;;;;5033461;28;20455;-72
2022/01/11 10:45:58;;;;;;;24.30;13.10;;;2.30;94.50;;;;;;5033217;28;20433;-74
2022/01/11 10:48:28;;;;;;;22.70;12.00;;;2.20;94.70;;;;;;5024094;28;20515;-73
2022/01/11 10:51:02;;;;;;;24.63;10.40;;;2.30;95.90;;;;;;5029653;28;20704;-74
2022/01/11 10:53:39;;;;;;;21.43;12.20;;;2.40;94.40;;;;;;5058383;28;20422;-73
2022/01/11 10:56:07;;;;;;;46.57;24.53;;;2.30;94.40;;;;;;5048952;28;20440;-73
2022/01/11 10:58:38;;;;;;;22.00;10.17;;;2.40;95.00;;;;;;5039434;28;21212;-73
2022/01/11 11:01:11;;;;;;;19.73;10.87;;;2.40;94.60;;;;;;5052962;28;20424;-73
2022/01/11 11:03:37;;;;;;;21.30;9.40;;;2.50;95.20;;;;;;5051732;28;20459;-73
2022/01/11 11:06:10;;;;;;;21.13;9.10;;;2.60;94.80;;;;;;5054251;28;20456;-74
2022/01/11 11:08:44;;;;;;;20.50;10.43;;;2.60;94.40;;;;;;5038773;28;20416;-73
2022/01/11 11:11:20;;;;;;;19.93;10.57;;;2.50;94.10;;;;;;5028121;28;20413;-73
2022/01/11 11:14:00;;;;;;;18.60;10.30;;;2.50;93.80;;;;;;5021048;28;20428;-74
2022/01/11 11:16:29;;;;;;;22.17;10.20;;;2.40;94.60;;;;;;5031777;28;20938;-75
2022/01/11 11:18:59;;;;;;;18.57;9.43;;;2.30;94.50;;;;;;5030190;28;20427;-73
2022/01/11 11:21:43;;;;;;;20.97;9.87;;;2.30;94.90;;;;;;5053458;28;20416;-73
2022/01/11 11:24:11;;;;;;;19.73;10.03;;;2.40;95.00;;;;;;5044940;28;20447;-73
2022/01/11 11:26:38;;;;;;;15.17;8.63;;;2.30;94.40;;;;;;5052538;28;20519;-73
2022/01/11 11:29:09;;;;;;;15.80;8.50;;;2.30;94.70;;;;;;5068721;28;20422;-72
2022/01/11 11:31:36;;;;;;;13.70;7.90;;;2.30;94.80;;;;;;5061026;28;20409;-73
2022/01/11 11:34:03;;;;;;;20.87;10.13;;;2.30;95.20;;;;;;5062217;28;20434;-73
2022/01/11 11:36:30;;;;;;;26.00;10.73;;;2.40;95.30;;;;;;5058243;28;20464;-73
2022/01/11 11:39:11;;;;;;;23.57;9.93;;;2.50;95.20;;;;;;5058435;28;20415;-75
2022/01/11 11:41:44;;;;;;;19.80;10.27;;;2.50;94.70;;;;;;5061812;28;20455;-72
2022/01/11 11:44:24;;;;;;;23.10;9.03;;;2.50;94.70;;;;;;5046913;28;20481;-73
2022/01/11 11:47:00;;;;;;;20.00;10.83;;;2.50;94.60;;;;;;5053969;28;20458;-74
2022/01/11 11:49:49;;;;;;;20.40;9.80;;;2.60;95.10;;;;;;5070029;28;20483;-71
2022/01/11 11:52:17;;;;;;;23.60;10.53;;;2.60;94.60;;;;;;5033547;28;20460;-73
2022/01/11 11:54:56;;;;;;;19.07;9.73;;;2.60;94.80;;;;;;5054184;28;20445;-73
2022/01/11 11:57:24;;;;;;;15.87;8.83;;;2.70;95.30;;;;;;5051428;28;20500;-72
2022/01/11 12:00:07;;;;;;;18.13;9.60;;;2.80;95.20;;;;;;5056356;28;20420;-73
2022/01/11 12:02:40;;;;;;;17.43;10.40;;;2.90;94.90;;;;;;5049937;28;21006;-72
2022/01/11 12:05:10;;;;;;;23.07;11.07;;;3.00;94.60;;;;;;5052873;28;20451;-73
2022/01/11 12:07:43;;;;;;;19.40;10.83;;;3.10;94.70;;;;;;5048224;28;20452;-72
2022/01/11 12:10:17;;;;;;;14.83;9.53;;;3.10;94.30;;;;;;5054135;28;20900;-74
2022/01/11 12:12:55;;;;;;;24.47;11.33;;;3.20;94.10;;;;;;5063093;28;20498;-73
2022/01/11 12:15:33;;;;;;;19.13;11.47;;;3.20;94.30;;;;;;5055633;28;20436;-74
2022/01/11 12:17:58;;;;;;;19.70;10.80;;;3.20;93.90;;;;;;5053558;28;20446;-73
2022/01/11 12:20:48;;;;;;;24.30;12.00;;;3.20;93.90;;;;;;5044636;28;20431;-74
2022/01/11 12:23:38;;;;;;;18.33;9.23;;;3.30;94.20;;;;;;5057034;28;20245;-73
2022/01/11 12:26:26;;;;;;;15.77;9.47;;;3.30;94.00;;;;;;5045947;28;20439;-72
2022/01/11 12:29:11;;;;;;;17.27;10.30;;;3.40;93.70;;;;;;5064901;28;20916;-72
2022/01/11 12:31:39;;;;;;;20.90;11.03;;;3.40;93.70;;;;;;5059438;28;20448;-74
2022/01/11 12:34:10;;;;;;;23.37;10.67;;;3.50;93.70;;;;;;5075631;28;20515;-72
2022/01/11 12:37:01;;;;;;;21.17;9.30;;;3.50;93.70;;;;;;5051405;28;20447;-73
2022/01/11 12:39:30;;;;;;;20.97;10.80;;;3.50;93.50;;;;;;5049383;28;20473;-73
2022/01/11 12:41:57;;;;;;;16.67;8.83;;;3.50;93.50;;;;;;5052649;28;20515;-73
2022/01/11 12:45:35;;;;;;;18.90;10.40;;;3.60;93.70;;;;;;5052446;28;20424;-72
2022/01/11 12:47:21;;;;;;;20.53;10.77;;;3.70;93.70;;;;;;5054347;28;20483;-72